Lesley Pg — MXUG5 — position and weather

sailwx.info

Track history (hours):
 
Tides and Currents Weather Stations Pressure Air Temp Water Temp Dewpoint Dewpoint Depression Visibility Wind Speed Wind Dir Waves Ship Positions

Lesley Pg

Last reported at 2016-Apr-30 20:27 UTC. Time now 2016-May-01 06:12 UTC.
Position N 10°19' W 061°29'.

Length 102 m; draft 4.5 m.

Type: Tanker. MMSI: 234910000.

Date/timePositionNaut miles runAvg speedWind from/ knotsBaromVisibWave heightAir tempDewpointWater temp
2016-Apr-30 20:27N 10°19' W 061°29'1 1.1
2016-Apr-30 19:33N 10°19' W 061°30'0 0.2
2016-Apr-30 18:31N 10°19' W 061°30'0 0.0
2016-Apr-30 17:31N 10°19' W 061°30'0 0.0
2016-Apr-30 16:28N 10°19' W 061°30'8 8.4
2016-Apr-30 15:33N 10°25' W 061°35'1212.2
2016-Apr-30 14:34N 10°34' W 061°44'10 9.8
2016-Apr-30 13:31N 10°42' W 061°49'1111.6
2016-Apr-30 12:33N 10°53' W 061°51'202 5.4
2016-Apr-28 23:20N 14°12' W 061°14'8410.7
2016-Apr-28 15:30N 15°33' W 061°36'1410.6
2016-Apr-28 14:13N 15°43' W 061°46'4311.3
2016-Apr-28 10:26N 16°18' W 062°11'1011.9
2016-Apr-28 09:33N 16°27' W 062°17'1211.5
2016-Apr-28 08:33N 16°37' W 062°24'7810.9
2016-Apr-28 01:26N 17°42' W 063°07'1111.0
2016-Apr-28 00:26N 17°53' W 063°09'1011.0
2016-Apr-27 23:33N 18°03' W 063°12'9 0.7
2016-Apr-27 11:13N 18°09' W 063°05'811.3
2016-Apr-27 10:30N 18°03' W 063°10'5 5.1
2016-Apr-27 09:27N 18°01' W 063°05'0 0.0
2016-Apr-27 08:30N 18°01' W 063°05'0 0.0
2016-Apr-27 07:31N 18°01' W 063°05'0 0.0
2016-Apr-27 06:27N 18°01' W 063°05'0 0.0
2016-Apr-27 05:33N 18°01' W 063°05'0 0.0
2016-Apr-27 04:15N 18°01' W 063°05'0 0.0
2016-Apr-27 03:33N 18°01' W 063°05'0 0.0
2016-Apr-27 02:33N 18°01' W 063°05'0 0.0
2016-Apr-27 01:18N 18°01' W 063°05'0 0.0
2016-Apr-27 00:25N 18°01' W 063°05'0 0.0
2016-Apr-26 23:24N 18°01' W 063°05'0 0.0
2016-Apr-26 22:24N 18°01' W 063°05'0 0.0
2016-Apr-26 21:22N 18°01' W 063°05'0 0.0
2016-Apr-26 20:24N 18°01' W 063°05'0 0.0
2016-Apr-26 19:24N 18°01' W 063°05'0 0.0
2016-Apr-26 18:30N 18°01' W 063°05'0 0.0
2016-Apr-26 17:30N 18°01' W 063°05'0 0.0
2016-Apr-26 16:30N 18°01' W 063°05'0 0.0
2016-Apr-26 15:33N 18°01' W 063°05'0 0.0
2016-Apr-26 14:33N 18°01' W 063°05'0 0.0
2016-Apr-26 13:27N 18°01' W 063°05'3 3.0
2016-Apr-26 12:33N 17°59' W 063°05'8111.6
2016-Apr-26 05:33N 16°45' W 062°29'1212.1
2016-Apr-26 04:33N 16°35' W 062°22'8412.0
2016-Apr-25 21:31N 15°20' W 061°42'  
2016-Apr-23 16:30N 10°50' W 061°50'1212.6
2016-Apr-23 15:33N 10°39' W 061°48'1212.1
2016-Apr-23 14:33N 10°29' W 061°40'1312.3
2016-Apr-23 13:28N 10°20' W 061°31'1 1.1
2016-Apr-23 12:29N 10°19' W 061°30'1 0.1
2016-Apr-22 22:25N 10°19' W 061°29'1 0.0
2016-Apr-21 22:08N 10°19' W 061°30'0 0.0
2016-Apr-21 21:33N 10°19' W 061°30'0 0.0
2016-Apr-21 20:33N 10°19' W 061°30'0 0.0
2016-Apr-21 19:33N 10°19' W 061°30'0 0.0
2016-Apr-21 18:33N 10°19' W 061°30'0 0.0
2016-Apr-21 17:33N 10°19' W 061°30'0 0.0
2016-Apr-21 16:33N 10°19' W 061°30'0 0.0
2016-Apr-21 15:34N 10°19' W 061°30'0 0.0
2016-Apr-21 14:31N 10°19' W 061°30'0 0.0
2016-Apr-21 13:33N 10°19' W 061°30'4 4.4
2016-Apr-21 12:33N 10°22' W 061°33'1212.0
2016-Apr-21 11:34N 10°31' W 061°41'1111.5
2016-Apr-21 10:34N 10°40' W 061°47'1211.5
2016-Apr-21 09:32N 10°51' W 061°41'1212.5
2016-Apr-21 08:33N 11°01' W 061°34'  
Track history (hours):
 
Tides and Currents Weather Stations Pressure Air Temp Water Temp Dewpoint Dewpoint Depression Visibility Wind Speed Wind Dir Waves Ship Positions

Lesley Pg

Last reported at 2016-Apr-30 20:27 UTC. Time now 2016-May-01 06:12 UTC.
Position N 10°19' W 061°29'.

Length 102 m; draft 4.5 m.

Type: Tanker. MMSI: 234910000.

Date/timePositionNaut miles runAvg speedWind from/ knotsBaromVisibWave heightAir tempDewpointWater temp
2016-Apr-30 20:27N 10°19' W 061°29'1 1.1
2016-Apr-30 19:33N 10°19' W 061°30'0 0.2
2016-Apr-30 18:31N 10°19' W 061°30'0 0.0
2016-Apr-30 17:31N 10°19' W 061°30'0 0.0
2016-Apr-30 16:28N 10°19' W 061°30'8 8.4
2016-Apr-30 15:33N 10°25' W 061°35'1212.2
2016-Apr-30 14:34N 10°34' W 061°44'10 9.8
2016-Apr-30 13:31N 10°42' W 061°49'1111.6
2016-Apr-30 12:33N 10°53' W 061°51'202 5.4
2016-Apr-28 23:20N 14°12' W 061°14'8410.7
2016-Apr-28 15:30N 15°33' W 061°36'1410.6
2016-Apr-28 14:13N 15°43' W 061°46'4311.3
2016-Apr-28 10:26N 16°18' W 062°11'1011.9
2016-Apr-28 09:33N 16°27' W 062°17'1211.5
2016-Apr-28 08:33N 16°37' W 062°24'7810.9
2016-Apr-28 01:26N 17°42' W 063°07'1111.0
2016-Apr-28 00:26N 17°53' W 063°09'1011.0
2016-Apr-27 23:33N 18°03' W 063°12'9 0.7
2016-Apr-27 11:13N 18°09' W 063°05'811.3
2016-Apr-27 10:30N 18°03' W 063°10'5 5.1
2016-Apr-27 09:27N 18°01' W 063°05'0 0.0
2016-Apr-27 08:30N 18°01' W 063°05'0 0.0
2016-Apr-27 07:31N 18°01' W 063°05'0 0.0
2016-Apr-27 06:27N 18°01' W 063°05'0 0.0
2016-Apr-27 05:33N 18°01' W 063°05'0 0.0
2016-Apr-27 04:15N 18°01' W 063°05'0 0.0
2016-Apr-27 03:33N 18°01' W 063°05'0 0.0
2016-Apr-27 02:33N 18°01' W 063°05'0 0.0
2016-Apr-27 01:18N 18°01' W 063°05'0 0.0
2016-Apr-27 00:25N 18°01' W 063°05'0 0.0
2016-Apr-26 23:24N 18°01' W 063°05'0 0.0
2016-Apr-26 22:24N 18°01' W 063°05'0 0.0
2016-Apr-26 21:22N 18°01' W 063°05'0 0.0
2016-Apr-26 20:24N 18°01' W 063°05'0 0.0
2016-Apr-26 19:24N 18°01' W 063°05'0 0.0
2016-Apr-26 18:30N 18°01' W 063°05'0 0.0
2016-Apr-26 17:30N 18°01' W 063°05'0 0.0
2016-Apr-26 16:30N 18°01' W 063°05'0 0.0
2016-Apr-26 15:33N 18°01' W 063°05'0 0.0
2016-Apr-26 14:33N 18°01' W 063°05'0 0.0
2016-Apr-26 13:27N 18°01' W 063°05'3 3.0
2016-Apr-26 12:33N 17°59' W 063°05'8111.6
2016-Apr-26 05:33N 16°45' W 062°29'1212.1
2016-Apr-26 04:33N 16°35' W 062°22'8412.0
2016-Apr-25 21:31N 15°20' W 061°42'  
2016-Apr-23 16:30N 10°50' W 061°50'1212.6
2016-Apr-23 15:33N 10°39' W 061°48'1212.1
2016-Apr-23 14:33N 10°29' W 061°40'1312.3
2016-Apr-23 13:28N 10°20' W 061°31'1 1.1
2016-Apr-23 12:29N 10°19' W 061°30'1 0.1
2016-Apr-22 22:25N 10°19' W 061°29'1 0.0
2016-Apr-21 22:08N 10°19' W 061°30'0 0.0
2016-Apr-21 21:33N 10°19' W 061°30'0 0.0
2016-Apr-21 20:33N 10°19' W 061°30'0 0.0
2016-Apr-21 19:33N 10°19' W 061°30'0 0.0
2016-Apr-21 18:33N 10°19' W 061°30'0 0.0
2016-Apr-21 17:33N 10°19' W 061°30'0 0.0
2016-Apr-21 16:33N 10°19' W 061°30'0 0.0
2016-Apr-21 15:34N 10°19' W 061°30'0 0.0
2016-Apr-21 14:31N 10°19' W 061°30'0 0.0
2016-Apr-21 13:33N 10°19' W 061°30'4 4.4
2016-Apr-21 12:33N 10°22' W 061°33'1212.0
2016-Apr-21 11:34N 10°31' W 061°41'1111.5
2016-Apr-21 10:34N 10°40' W 061°47'1211.5
2016-Apr-21 09:32N 10°51' W 061°41'1212.5
2016-Apr-21 08:33N 11°01' W 061°34'  

Dump ship's entire track history